Flight Track Log - Related Links

Times and Time Zones

All times are in EDT time to prevent confusion due to time zone crossing. See the USC105 flight status page for this flight to view local times or setup timezone preferences in your user account.

Time Position Orientation Groundspeed Altitude Reporting Facility
EDT Latitude Longitude Course Direction KTS MPH feet Rate Location/Type
Mon 11:06:54 PM 41.5400 -81.6594 31° Northeast 140 161 1,600  Level Cleveland Center
Mon 11:07:55 PM 41.5667 -81.7017 310° West 153 176 2,800 1,190 Climbing Cleveland Center
Mon 11:08:55 PM 41.5767 -81.7517 285° West 149 171 4,000 1,140 Climbing Cleveland Center
Mon 11:09:56 PM 41.5867 -81.8047 284° West 146 168 5,100 1,039 Climbing Cleveland Center
Mon 11:11:02 PM 41.6067 -81.8633 295° West 146 168 6,200 992 Climbing Cleveland Center
Mon 11:12:03 PM 41.6269 -81.9167 297° West 163 188 7,200 885 Climbing Cleveland Center
Mon 11:13:04 PM 41.6450 -81.9697 294° West 162 186 8,000 397 Climbing Cleveland Center
Mon 11:14:04 PM 41.6714 -82.0369 298° West 216 249 8,000  Level Cleveland Center
Mon 11:15:05 PM 41.7017 -82.1044 301° West 205 236 8,000  Level Cleveland Center
Mon 11:16:05 PM 41.7281 -82.1692 299° West 208 239 8,000  Level Cleveland Center
Mon 11:17:00 PM 41.7522 -82.2336 297° West 207 238 8,000  Level Cleveland Center
Mon 11:17:35 PM 41.7703 -82.2758 300° West 207 238 8,000  Level Cleveland Center
Mon 11:18:54 PM 41.8022 -82.3658 295° West 207 238 8,000  Level Cleveland Center
Mon 11:19:54 PM 41.8283 -82.4306 298° West 208 239 8,000  Level Cleveland Center
Mon 11:21:01 PM 41.8564 -82.5067 296° West 207 238 8,000  Level Cleveland Center
Mon 11:22:02 PM 41.8842 -82.5744 299° West 207 238 8,000  Level Cleveland Center
Mon 11:23:02 PM 41.9017 -82.6506 287° West 204 235 8,000  Level Cleveland Center
Mon 11:24:03 PM 41.9192 -82.7236 288° West 204 235 8,000  Level Cleveland Center
Mon 11:25:03 PM 41.9386 -82.7967 290° West 204 235 8,000  Level Cleveland Center
Mon 11:25:58 PM 41.9519 -82.8642 285° West 203 234 8,000 -330 Level Cleveland Center
Mon 11:26:52 PM 41.9672 -82.9264 288° West 210 242 7,400 -783 Descending Cleveland Center
Mon 11:27:53 PM 41.9864 -83.0108 287° West 224 258 6,500 -836 Descending Cleveland Center
Mon 11:28:54 PM 42.0056 -83.0897 288° West 222 255 5,700 -756 Descending Cleveland Center
Mon 11:30:00 PM 42.0286 -83.1744 290° West 219 252 4,900 -709 Descending Cleveland Center
Mon 11:31:01 PM 42.0478 -83.2508 289° West 211 243 4,200 -771 Descending Cleveland Center
Mon 11:31:49 PM 42.0650 -83.3131 290° West 213 245 3,500 -661 Descending Cleveland Center
Mon 11:32:50 PM 42.0842 -83.3894 289° West 207 238 3,000 -246 Descending Cleveland Center
Mon 11:33:51 PM 42.0969 -83.4544 285° West 186 214 3,000  Level Cleveland Center
Mon 11:34:51 PM 42.1161 -83.5197 292° West 183 211 3,000 -298 Level Cleveland Center
Mon 11:35:52 PM 42.1461 -83.5769 305° West 192 221 2,400 -639 Descending Cleveland Center
Mon 11:36:53 PM 42.1914 -83.5961 343° North 176 203 1,700 -694 Descending Cleveland Center
Mon 11:37:53 PM 42.2258 -83.5528 43° Northeast 148 170 1,000 -700 Descending Cleveland Center
Mon 11:39:00 PM 42.2333 -83.5167 North  Level FlightAware Approximate
Mon 11:46:00 PM 42.2393 -83.5310 North  Level Estimated
Mon 11:47:00 PM 42.2393 -83.5310 North  Level Estimated

Login

Don't have an account? Register now (free) for customized features, flight alerts, and more!